This is the latest recevied weather packets stored in our database for station/object KE5KUL-13. If no packets are shown the sender has not sent any weather packets the latest 10 day(s).
| Time | Temp. | Humidity | Pressure | Rain* | Wind** | Luminosity | Snow |
|---|---|---|---|---|---|---|---|
| 1777586419 | 18.33° C | 43% | 1016 hPa | 0 mm | - | - | - |
| 1777581019 | 21.11° C | 31% | 1017.6 hPa | 0 mm | - | - | - |
| 1777580417 | 20.56° C | 33% | 1017.5 hPa | 0 mm | - | - | - |
| 1777579817 | 19.44° C | 35% | 1017.4 hPa | 0 mm | - | - | - |
| 1777579219 | 18.89° C | 34% | 1017.3 hPa | 0 mm | - | - | - |
| 1777578619 | 18.89° C | 34% | 1017.4 hPa | 0 mm | - | - | - |
| 1777578019 | 19.44° C | 33% | 1017.7 hPa | 0 mm | - | - | - |
| 1777577417 | 20° C | 32% | 1017.7 hPa | 0 mm | - | - | - |
| 1777576818 | 19.44° C | 35% | 1017.8 hPa | 0 mm | - | - | - |
| 1777576217 | 18.33° C | 35% | 1017.6 hPa | 0 mm | - | - | - |
| 1777575019 | 18.89° C | 35% | 1018.2 hPa | 0 mm | - | - | - |
| 1777573818 | 18.89° C | 37% | 1018.3 hPa | 0 mm | - | - | - |
| 1777573218 | 19.44° C | 36% | 1018.9 hPa | 0 mm | - | - | - |
| 1777572619 | 19.44° C | 36% | 1019.1 hPa | 0 mm | - | - | - |
| 1777570819 | 18.89° C | 39% | 1019.4 hPa | 0 mm | - | - | - |
| 1777570217 | 18.33° C | 42% | 1019.4 hPa | 0 mm | - | - | - |
| 1777568418 | 17.78° C | 46% | 1019.5 hPa | 0 mm | - | - | - |
| 1777565418 | 14.44° C | 58% | 1019.5 hPa | 0 mm | - | - | - |
| 1777564818 | 13.89° C | 61% | 1019.2 hPa | 0 mm | - | - | - |
| 1777563018 | 12.78° C | 63% | 1019.4 hPa | 0 mm | - | - | - |
| 1777562418 | 12.22° C | 64% | 1019.4 hPa | 0 mm | - | - | - |
| 1777561218 | 11.67° C | 66% | 1019.4 hPa | 0 mm | - | - | - |
| 1777558818 | 10° C | 71% | 1019.5 hPa | 0 mm | - | - | - |
| 1777558218 | 9.44° C | 72% | 1019.7 hPa | 0 mm | - | - | - |
| 1777555818 | 8.89° C | 73% | 1019.9 hPa | 0 mm | - | - | - |
* Rain latest hour (hover to see other rain measurements)
** Current wind speed in m/s (hover to see current wind gust speed)